Time;durP1;ratioP1;P1;durP2;ratioP2;P2;SDS_P1;SDS_P2;PMS_P1;PMS_P2;Temp;Humidity;BMP_temperature;BMP_pressure;BME280_temperature;BME280_humidity;BME280_pressure;Samples;Min_cycle;Max_cycle;Signal;HPM_P1;HPM_P2
2023/11/24 15:18:08;;;;;;;11.93;3.23;;;4.20;99.90;;;;;;5837707;23;20304;-64
2023/11/24 15:20:43;;;;;;;9.27;2.40;;;4.20;99.90;;;;;;4921884;28;20418;-64
2023/11/24 15:23:12;;;;;;;12.40;2.37;;;4.20;99.90;;;;;;4947560;29;20712;-65
2023/11/24 15:25:52;;;;;;;6.53;2.27;;;4.20;99.90;;;;;;4946422;28;20210;-65
2023/11/24 15:28:22;;;;;;;5.20;2.70;;;4.20;99.90;;;;;;4948096;28;20210;-63
2023/11/24 15:30:56;;;;;;;9.10;2.20;;;4.30;99.90;;;;;;4949072;29;20198;-64
2023/11/24 15:33:21;;;;;;;7.83;1.90;;;4.20;99.90;;;;;;4948851;29;20717;-65
2023/11/24 15:35:50;;;;;;;5.57;1.90;;;4.00;99.90;;;;;;4930848;29;20199;-65
2023/11/24 15:38:20;;;;;;;4.37;1.47;;;3.80;99.90;;;;;;4949525;28;20274;-63
2023/11/24 15:40:53;;;;;;;2.53;1.20;;;3.70;99.90;;;;;;4960555;28;20268;-66
2023/11/24 15:43:19;;;;;;;4.53;1.33;;;3.60;99.90;;;;;;4953596;28;20187;-66
2023/11/24 15:45:54;;;;;;;4.23;0.90;;;3.50;99.90;;;;;;4953305;29;20179;-63
2023/11/24 15:48:21;;;;;;;2.97;1.00;;;3.50;99.90;;;;;;4953084;28;20202;-63
2023/11/24 15:50:50;;;;;;;2.13;1.00;;;3.50;99.90;;;;;;4952878;28;20194;-64
2023/11/24 15:53:19;;;;;;;2.63;1.03;;;3.40;99.90;;;;;;4953717;29;20210;-63
2023/11/24 15:55:46;;;;;;;2.80;1.00;;;3.40;99.90;;;;;;4952904;29;20196;-63
2023/11/24 15:58:13;;;;;;;3.43;1.93;;;3.40;99.90;;;;;;4953404;28;20269;-63
2023/11/24 16:00:42;;;;;;;3.87;1.73;;;3.40;99.90;;;;;;4953782;29;20171;-63
2023/11/24 16:03:09;;;;;;;4.40;1.67;;;3.40;99.90;;;;;;4953177;29;20195;-63
2023/11/24 16:05:40;;;;;;;4.53;1.93;;;3.50;99.90;;;;;;4953006;29;20182;-63
2023/11/24 16:08:07;;;;;;;5.53;2.00;;;3.40;99.90;;;;;;4952467;28;20207;-64
2023/11/24 16:10:41;;;;;;;6.73;2.33;;;3.50;99.90;;;;;;4952918;29;20174;-62
2023/11/24 16:13:09;;;;;;;7.17;2.63;;;3.40;99.90;;;;;;4953247;29;20186;-63
2023/11/24 16:15:40;;;;;;;8.73;2.90;;;3.40;99.90;;;;;;4958383;28;20637;-63
2023/11/24 16:18:07;;;;;;;11.13;3.20;;;3.50;99.90;;;;;;4954275;28;20677;-65
2023/11/24 16:20:34;;;;;;;8.03;2.63;;;3.50;99.90;;;;;;4952605;29;20241;-65
2023/11/24 16:23:01;;;;;;;6.80;2.30;;;3.50;99.90;;;;;;4960492;28;20641;-65
2023/11/24 16:25:27;;;;;;;6.43;2.83;;;3.50;99.90;;;;;;4953329;29;20544;-65
2023/11/24 16:27:53;;;;;;;5.60;2.20;;;3.50;99.90;;;;;;4952382;28;20210;-65
2023/11/24 16:30:19;;;;;;;6.87;1.83;;;3.50;99.90;;;;;;4952839;29;20186;-65
2023/11/24 16:32:45;;;;;;;10.00;2.33;;;3.50;99.90;;;;;;4952809;29;20187;-65
2023/11/24 16:35:11;;;;;;;5.60;2.00;;;3.50;99.90;;;;;;4943439;29;20265;-65
2023/11/24 16:37:40;;;;;;;4.47;2.20;;;3.50;99.90;;;;;;4952103;28;20182;-65
2023/11/24 16:40:10;;;;;;;10.07;2.00;;;3.50;99.90;;;;;;4960858;28;20218;-65
2023/11/24 16:42:36;;;;;;;11.53;3.03;;;3.50;99.90;;;;;;4953062;28;20649;-65
2023/11/24 16:45:03;;;;;;;11.93;2.50;;;3.50;99.90;;;;;;4952910;28;20189;-65
2023/11/24 16:47:29;;;;;;;12.10;3.50;;;3.50;99.90;;;;;;4952110;29;20210;-65
2023/11/24 16:49:55;;;;;;;6.83;2.80;;;3.50;99.90;;;;;;4952706;29;20222;-65
2023/11/24 16:52:20;;;;;;;5.03;2.13;;;3.50;99.90;;;;;;4952536;29;20531;-65
2023/11/24 16:54:46;;;;;;;3.70;2.17;;;3.50;99.90;;;;;;4952680;29;20677;-65
2023/11/24 16:57:11;;;;;;;8.17;2.43;;;3.50;99.90;;;;;;4952176;29;20190;-64
2023/11/24 16:59:37;;;;;;;6.13;1.90;;;3.50;99.90;;;;;;4960438;28;20693;-65
2023/11/24 17:02:04;;;;;;;13.80;2.20;;;3.50;99.90;;;;;;4942978;29;20198;-65
2023/11/24 17:04:29;;;;;;;13.07;2.50;;;3.50;99.90;;;;;;4952955;29;20533;-65
2023/11/24 17:06:55;;;;;;;7.30;2.00;;;3.50;99.90;;;;;;4952765;29;20181;-65
2023/11/24 17:09:21;;;;;;;7.10;2.43;;;3.50;99.90;;;;;;4951983;28;20210;-64
2023/11/24 17:11:46;;;;;;;10.43;2.10;;;3.60;99.90;;;;;;4952563;28;20198;-65
2023/11/24 17:14:17;;;;;;;7.37;2.10;;;3.60;99.90;;;;;;4952551;29;20209;-65
2023/11/24 17:16:42;;;;;;;8.27;2.23;;;3.60;99.90;;;;;;4952621;28;20194;-65
2023/11/24 17:19:08;;;;;;;6.17;2.70;;;3.60;99.90;;;;;;4951646;28;20777;-65
2023/11/24 17:21:38;;;;;;;7.00;2.30;;;3.60;99.90;;;;;;4952691;28;20182;-65
2023/11/24 17:24:04;;;;;;;6.73;1.70;;;3.60;99.90;;;;;;4953438;28;20592;-65
2023/11/24 17:26:31;;;;;;;7.47;1.90;;;3.70;99.90;;;;;;4959626;28;20191;-65
2023/11/24 17:28:58;;;;;;;12.00;2.40;;;3.70;99.90;;;;;;4952056;28;20268;-64
2023/11/24 17:31:24;;;;;;;11.00;2.90;;;3.70;99.90;;;;;;4952362;29;20186;-65
2023/11/24 17:33:54;;;;;;;11.13;2.60;;;3.70;99.90;;;;;;4952755;29;20186;-65
2023/11/24 17:36:20;;;;;;;7.70;1.87;;;3.70;99.90;;;;;;4952495;28;20182;-65
2023/11/24 17:38:46;;;;;;;4.30;2.00;;;3.70;99.90;;;;;;4951770;28;20814;-65
2023/11/24 17:41:13;;;;;;;6.10;1.67;;;3.70;99.90;;;;;;4941873;29;20236;-64
2023/11/24 17:43:39;;;;;;;6.33;2.37;;;3.70;99.90;;;;;;4951766;28;20655;-65
2023/11/24 17:46:07;;;;;;;10.10;2.77;;;3.70;99.90;;;;;;4952557;28;20190;-65
2023/11/24 17:48:34;;;;;;;7.67;2.60;;;3.70;99.90;;;;;;4951706;28;20225;-65
2023/11/24 17:51:02;;;;;;;8.57;3.23;;;3.60;99.90;;;;;;4960351;28;20194;-65
2023/11/24 17:53:31;;;;;;;5.27;3.00;;;3.60;99.90;;;;;;4952455;29;20183;-64
2023/11/24 17:56:00;;;;;;;12.43;2.33;;;3.60;99.90;;;;;;4960538;28;20206;-65
2023/11/24 17:58:26;;;;;;;7.33;2.63;;;3.60;99.90;;;;;;4951529;28;20210;-65
2023/11/24 18:00:53;;;;;;;8.20;1.97;;;3.60;99.90;;;;;;4952429;29;20673;-65
2023/11/24 18:03:19;;;;;;;11.50;2.00;;;3.60;99.90;;;;;;4960641;28;20194;-65
2023/11/24 18:05:44;;;;;;;5.40;1.83;;;3.60;99.90;;;;;;4952497;29;20187;-65
2023/11/24 18:08:10;;;;;;;5.07;2.17;;;3.60;99.90;;;;;;4951640;28;20628;-65
2023/11/24 18:10:37;;;;;;;4.17;1.70;;;3.60;99.90;;;;;;4960378;28;20187;-65
2023/11/24 18:13:03;;;;;;;5.20;2.17;;;3.60;99.90;;;;;;4952187;28;20550;-65
2023/11/24 18:15:29;;;;;;;10.20;2.10;;;3.50;99.90;;;;;;4955362;28;20194;-64
2023/11/24 18:17:55;;;;;;;12.67;2.50;;;3.50;99.90;;;;;;4955389;28;20202;-65
2023/11/24 18:20:21;;;;;;;8.23;2.40;;;3.60;99.90;;;;;;4955294;28;20241;-65
2023/11/24 18:22:47;;;;;;;4.20;1.70;;;3.60;99.90;;;;;;4956017;28;20186;-65
2023/11/24 18:25:13;;;;;;;8.83;1.70;;;3.60;99.90;;;;;;4948013;29;20401;-65
2023/11/24 18:27:39;;;;;;;7.53;1.90;;;3.50;99.90;;;;;;4954720;28;20559;-65
2023/11/24 18:30:06;;;;;;;8.07;2.40;;;3.60;99.90;;;;;;4956530;28;20736;-65
2023/11/24 18:32:32;;;;;;;8.87;2.00;;;3.60;99.90;;;;;;4962870;28;20183;-65
2023/11/24 18:34:58;;;;;;;4.83;1.87;;;3.60;99.90;;;;;;4955476;29;20186;-65
2023/11/24 18:37:25;;;;;;;6.43;1.77;;;3.50;99.90;;;;;;4958518;28;20197;-65
2023/11/24 18:39:51;;;;;;;7.17;1.77;;;3.50;99.90;;;;;;4957496;28;20264;-65
2023/11/24 18:42:18;;;;;;;7.63;1.70;;;3.60;99.90;;;;;;4954569;29;20463;-65
2023/11/24 18:44:44;;;;;;;4.17;1.37;;;3.60;99.90;;;;;;4951743;28;20221;-65
2023/11/24 18:47:09;;;;;;;7.07;1.37;;;3.60;99.90;;;;;;4950185;28;20238;-65
2023/11/24 18:49:35;;;;;;;8.27;2.70;;;3.60;99.90;;;;;;4952603;28;20211;-65
2023/11/24 18:52:00;;;;;;;8.20;1.60;;;3.60;99.90;;;;;;4954128;28;20285;-65
2023/11/24 18:54:28;;;;;;;4.67;1.50;;;3.60;99.90;;;;;;4951756;28;20329;-64
2023/11/24 18:56:54;;;;;;;4.43;1.30;;;3.60;99.90;;;;;;4951879;28;20222;-64
2023/11/24 18:59:22;;;;;;;6.50;1.80;;;3.60;99.90;;;;;;4951978;28;20654;-65
2023/11/24 19:01:47;;;;;;;2.70;1.73;;;3.50;99.90;;;;;;4952885;28;20673;-64
2023/11/24 19:04:13;;;;;;;9.53;2.60;;;3.50;99.90;;;;;;4953271;28;20206;-65
2023/11/24 19:06:39;;;;;;;12.40;2.63;;;3.50;99.90;;;;;;4954692;29;20183;-65
2023/11/24 19:09:05;;;;;;;5.37;2.33;;;3.50;99.90;;;;;;4949912;28;20218;-65
2023/11/24 19:11:30;;;;;;;7.90;2.00;;;3.40;99.90;;;;;;4954681;28;20646;-65
2023/11/24 19:13:56;;;;;;;5.43;2.10;;;3.40;99.90;;;;;;4954620;29;20230;-65
2023/11/24 19:16:21;;;;;;;4.83;2.30;;;3.40;99.90;;;;;;4952289;28;20198;-65
2023/11/24 19:18:47;;;;;;;5.43;1.77;;;3.30;99.90;;;;;;4954725;28;20217;-65
2023/11/24 19:21:13;;;;;;;5.73;2.33;;;3.30;99.90;;;;;;4958298;28;20277;-65
2023/11/24 19:23:39;;;;;;;3.30;1.90;;;3.30;99.90;;;;;;4960371;28;20186;-64
2023/11/24 19:26:11;;;;;;;5.83;2.30;;;3.30;99.90;;;;;;4953135;28;20245;-64
2023/11/24 19:28:42;;;;;;;7.17;2.30;;;3.30;99.90;;;;;;4958439;28;20588;-64
2023/11/24 19:31:08;;;;;;;6.17;2.13;;;3.20;99.90;;;;;;4960220;28;20213;-64
2023/11/24 19:33:34;;;;;;;5.40;2.50;;;3.20;99.90;;;;;;4954407;28;20646;-64
2023/11/24 19:36:00;;;;;;;6.07;2.80;;;3.10;99.90;;;;;;4955616;28;20205;-64
2023/11/24 19:38:25;;;;;;;5.80;2.20;;;3.00;99.90;;;;;;4953429;28;20209;-64
2023/11/24 19:40:51;;;;;;;5.83;3.27;;;2.90;99.90;;;;;;4953488;28;20194;-64
2023/11/24 19:43:17;;;;;;;6.33;2.80;;;2.90;99.90;;;;;;4955011;28;20221;-64
2023/11/24 19:45:42;;;;;;;7.13;2.50;;;2.90;99.90;;;;;;4954260;29;20194;-64
2023/11/24 19:48:09;;;;;;;10.03;2.80;;;2.90;99.90;;;;;;4938630;29;20261;-64
2023/11/24 19:50:34;;;;;;;6.63;2.60;;;2.90;99.90;;;;;;4954425;28;20273;-64
2023/11/24 19:53:00;;;;;;;4.40;2.47;;;2.90;99.90;;;;;;4953664;29;20269;-64
2023/11/24 19:55:26;;;;;;;3.70;2.27;;;2.90;99.90;;;;;;4953415;29;20195;-65
2023/11/24 19:57:51;;;;;;;7.10;2.40;;;2.80;99.90;;;;;;4952624;28;20222;-64
2023/11/24 20:00:17;;;;;;;4.27;2.40;;;2.80;99.90;;;;;;4956677;28;20213;-64
2023/11/24 20:02:43;;;;;;;2.73;2.10;;;2.80;99.90;;;;;;4935645;29;20269;-64
2023/11/24 20:05:08;;;;;;;6.20;2.63;;;2.80;99.90;;;;;;4952653;29;20322;-65
2023/11/24 20:07:34;;;;;;;7.83;3.20;;;2.90;99.90;;;;;;4951979;28;20209;-65
2023/11/24 20:10:00;;;;;;;6.43;3.50;;;2.80;99.90;;;;;;4952973;29;20279;-64
2023/11/24 20:12:25;;;;;;;7.43;3.63;;;2.80;99.90;;;;;;4953208;29;20178;-64
2023/11/24 20:14:51;;;;;;;6.37;3.73;;;2.90;99.90;;;;;;4953741;29;20186;-64
2023/11/24 20:17:17;;;;;;;5.53;3.67;;;2.90;99.90;;;;;;4952045;29;20277;-64
2023/11/24 20:19:43;;;;;;;8.93;4.07;;;2.90;99.90;;;;;;4954083;28;20228;-64
2023/11/24 20:22:08;;;;;;;7.63;3.83;;;2.90;99.90;;;;;;4962436;28;20562;-64
2023/11/24 20:24:34;;;;;;;8.20;3.60;;;2.80;99.90;;;;;;4961101;28;20230;-64
2023/11/24 20:26:59;;;;;;;4.80;3.10;;;2.70;99.90;;;;;;4953998;28;20191;-64
2023/11/24 20:29:25;;;;;;;7.67;3.00;;;2.70;99.90;;;;;;4958100;28;20218;-64
2023/11/24 20:31:51;;;;;;;6.80;2.30;;;2.70;99.90;;;;;;4955373;28;20594;-64
2023/11/24 20:34:16;;;;;;;6.30;2.70;;;2.60;99.90;;;;;;4959501;28;20705;-64
2023/11/24 20:36:43;;;;;;;5.00;2.13;;;2.50;99.90;;;;;;4957720;28;20499;-64
2023/11/24 20:39:09;;;;;;;4.73;2.90;;;2.40;99.90;;;;;;4953313;28;20269;-64
2023/11/24 20:41:41;;;;;;;7.57;3.00;;;2.40;99.90;;;;;;4953460;29;20186;-64
2023/11/24 20:44:08;;;;;;;5.90;3.10;;;2.40;99.90;;;;;;4953315;28;20242;-64
2023/11/24 20:46:34;;;;;;;6.47;3.17;;;2.40;99.90;;;;;;4958631;28;20209;-64
2023/11/24 20:49:00;;;;;;;9.07;3.47;;;2.40;99.90;;;;;;4953982;28;20614;-64
2023/11/24 20:51:26;;;;;;;5.43;3.20;;;2.40;99.90;;;;;;4951530;28;20190;-64
2023/11/24 20:53:51;;;;;;;8.27;3.10;;;2.40;99.90;;;;;;4958621;28;20197;-64
2023/11/24 20:56:17;;;;;;;5.97;3.07;;;2.40;99.90;;;;;;4955910;28;20876;-64
2023/11/24 20:58:42;;;;;;;7.30;3.33;;;2.50;99.90;;;;;;4957171;28;20604;-64
2023/11/24 21:01:10;;;;;;;11.03;3.60;;;2.50;99.90;;;;;;4957979;28;20186;-64
2023/11/24 21:03:38;;;;;;;9.27;3.40;;;2.60;99.90;;;;;;4957481;28;20666;-65
2023/11/24 21:06:04;;;;;;;9.73;3.47;;;2.60;99.90;;;;;;4953468;28;20669;-64
2023/11/24 21:08:30;;;;;;;6.17;2.80;;;2.60;99.90;;;;;;4954516;28;20228;-64
2023/11/24 21:10:55;;;;;;;7.03;2.70;;;2.70;99.90;;;;;;4956490;28;20178;-64
2023/11/24 21:13:22;;;;;;;9.33;3.20;;;2.70;99.90;;;;;;4955335;28;20325;-64
2023/11/24 21:15:48;;;;;;;5.77;2.83;;;2.70;99.90;;;;;;4956792;28;20201;-64
2023/11/24 21:18:14;;;;;;;10.97;2.97;;;2.70;99.90;;;;;;4953165;28;20229;-64
2023/11/24 21:20:40;;;;;;;7.43;2.30;;;2.70;99.90;;;;;;4956284;28;20182;-64
2023/11/24 21:23:06;;;;;;;8.33;2.47;;;2.70;99.90;;;;;;4956285;28;20214;-64
2023/11/24 21:25:31;;;;;;;11.53;2.73;;;2.70;99.90;;;;;;4955811;28;20273;-65
2023/11/24 21:27:58;;;;;;;9.90;2.20;;;2.80;99.90;;;;;;4952443;28;20265;-65
2023/11/24 21:30:24;;;;;;;7.97;2.60;;;2.70;99.90;;;;;;4963418;28;20194;-65
2023/11/24 21:32:56;;;;;;;4.07;1.90;;;2.70;99.90;;;;;;4963473;28;20181;-65
2023/11/24 21:35:22;;;;;;;4.10;1.40;;;2.40;99.90;;;;;;4962971;28;20673;-65
2023/11/24 21:37:48;;;;;;;7.80;1.10;;;2.30;99.90;;;;;;4957800;28;20210;-65
2023/11/24 21:40:14;;;;;;;2.43;0.97;;;2.10;99.90;;;;;;4961751;28;20209;-65
2023/11/24 21:42:46;;;;;;;2.77;0.97;;;2.00;99.90;;;;;;4962788;28;20189;-64
2023/11/24 21:45:12;;;;;;;2.87;0.90;;;1.90;99.90;;;;;;4959794;28;20590;-65
2023/11/24 21:47:38;;;;;;;1.23;0.83;;;1.80;99.90;;;;;;4960854;28;20545;-65
2023/11/24 21:50:05;;;;;;;3.00;1.30;;;1.80;99.90;;;;;;4966378;28;20183;-65
2023/11/24 21:52:31;;;;;;;5.07;1.30;;;1.90;99.90;;;;;;4966442;28;20178;-65
